Time;durP1;ratioP1;P1;durP2;ratioP2;P2;SDS_P1;SDS_P2;PMS_P1;PMS_P2;Temp;Humidity;BMP_temperature;BMP_pressure;BME280_temperature;BME280_humidity;BME280_pressure;Samples;Min_cycle;Max_cycle;Signal;HPM_P1;HPM_P2
2021/11/23 00:00:14;;;;;;;14.90;7.40;;;4.10;99.90;;;;;;5076060;28;20194;-72
2021/11/23 00:02:42;;;;;;;13.87;7.80;;;4.10;99.90;;;;;;5075875;28;20652;-72
2021/11/23 00:05:11;;;;;;;12.67;7.03;;;4.10;99.90;;;;;;5069589;28;20469;-72
2021/11/23 00:07:38;;;;;;;14.40;7.73;;;4.10;99.90;;;;;;5072545;28;20560;-72
2021/11/23 00:10:06;;;;;;;11.43;6.87;;;4.10;99.90;;;;;;5072912;28;20198;-72
2021/11/23 00:12:35;;;;;;;15.33;8.03;;;4.10;99.90;;;;;;5075131;28;20217;-72
2021/11/23 00:15:03;;;;;;;14.70;8.37;;;4.10;99.90;;;;;;5072338;28;20656;-72
2021/11/23 00:17:31;;;;;;;12.77;7.83;;;4.20;99.90;;;;;;5070660;28;20285;-72
2021/11/23 00:19:58;;;;;;;12.27;7.67;;;4.20;99.90;;;;;;5071526;28;20545;-72
2021/11/23 00:22:25;;;;;;;13.83;7.70;;;4.20;99.90;;;;;;5072117;28;20206;-72
2021/11/23 00:24:53;;;;;;;11.43;7.67;;;4.30;99.90;;;;;;5071272;28;20199;-72
2021/11/23 00:27:19;;;;;;;12.57;8.00;;;4.30;99.90;;;;;;5071694;28;20194;-72
2021/11/23 00:29:48;;;;;;;13.70;8.20;;;4.30;99.90;;;;;;5073619;28;20202;-72
2021/11/23 00:32:14;;;;;;;14.60;8.20;;;4.30;99.90;;;;;;5074268;28;20205;-72
2021/11/23 00:34:41;;;;;;;12.87;7.77;;;4.30;99.90;;;;;;5078807;28;20605;-72
2021/11/23 00:37:08;;;;;;;13.93;8.00;;;4.20;99.90;;;;;;5069399;28;20204;-72
2021/11/23 00:39:35;;;;;;;12.47;7.43;;;4.20;99.90;;;;;;5071593;28;20204;-72
2021/11/23 00:42:02;;;;;;;14.90;8.57;;;4.20;99.90;;;;;;5075946;28;20210;-72
2021/11/23 00:44:29;;;;;;;11.97;7.37;;;4.20;99.90;;;;;;5075728;28;20205;-72
2021/11/23 00:46:57;;;;;;;12.90;7.83;;;4.10;99.90;;;;;;5071097;28;20206;-72
2021/11/23 00:49:24;;;;;;;15.00;7.73;;;4.10;99.90;;;;;;5071863;28;20198;-72
2021/11/23 00:51:51;;;;;;;12.00;7.17;;;4.00;99.90;;;;;;5070617;28;20209;-72
2021/11/23 00:54:18;;;;;;;13.83;7.57;;;4.00;99.90;;;;;;5072262;28;20254;-72
2021/11/23 00:56:46;;;;;;;13.43;8.20;;;3.90;99.90;;;;;;5070742;28;20221;-72
2021/11/23 00:59:13;;;;;;;12.37;7.73;;;3.90;99.90;;;;;;5072965;28;20206;-72
2021/11/23 01:01:40;;;;;;;13.73;7.70;;;3.80;99.90;;;;;;5073303;28;20210;-72
2021/11/23 01:04:08;;;;;;;11.23;7.07;;;3.80;99.90;;;;;;5071284;28;20289;-72
2021/11/23 01:06:35;;;;;;;12.47;7.57;;;3.80;99.90;;;;;;5078766;28;20221;-72
2021/11/23 01:09:02;;;;;;;12.20;6.87;;;3.80;99.90;;;;;;5071208;28;20202;-72
2021/11/23 01:11:29;;;;;;;13.83;7.60;;;3.80;99.90;;;;;;5071718;28;20205;-72
2021/11/23 01:13:56;;;;;;;11.60;6.90;;;3.80;99.90;;;;;;5071273;28;20591;-72
2021/11/23 01:16:22;;;;;;;12.73;7.17;;;3.70;99.90;;;;;;5076677;28;20305;-72
2021/11/23 01:18:50;;;;;;;13.00;6.47;;;3.60;99.90;;;;;;5071355;28;20206;-72
2021/11/23 01:21:18;;;;;;;12.23;6.30;;;3.60;99.90;;;;;;5073441;28;20304;-72
2021/11/23 01:23:45;;;;;;;12.30;6.73;;;3.60;99.90;;;;;;5070802;28;20194;-72
2021/11/23 01:26:12;;;;;;;15.03;7.43;;;3.60;99.90;;;;;;5071958;28;20206;-72
2021/11/23 01:28:39;;;;;;;14.47;7.70;;;3.70;99.90;;;;;;5071240;28;20205;-72
2021/11/23 01:31:06;;;;;;;14.50;7.90;;;3.60;99.90;;;;;;5070491;28;20252;-72
2021/11/23 01:33:33;;;;;;;15.43;8.77;;;3.60;99.90;;;;;;5074284;28;20221;-72
2021/11/23 01:36:00;;;;;;;16.70;7.77;;;3.60;99.90;;;;;;5071576;28;20213;-72
2021/11/23 01:38:28;;;;;;;14.60;8.20;;;3.60;99.90;;;;;;5073283;28;20241;-72
2021/11/23 01:40:55;;;;;;;20.73;9.70;;;3.60;99.90;;;;;;5070806;28;20198;-72
2021/11/23 01:43:22;;;;;;;17.07;8.50;;;3.50;99.90;;;;;;5070975;28;20233;-73
2021/11/23 01:45:49;;;;;;;17.13;9.60;;;3.60;99.90;;;;;;5070442;28;20298;-72
2021/11/23 01:48:16;;;;;;;16.43;9.80;;;3.70;99.90;;;;;;5073495;28;20244;-72
2021/11/23 01:50:43;;;;;;;18.60;9.83;;;3.70;99.90;;;;;;5068933;28;20201;-72
2021/11/23 01:53:10;;;;;;;16.37;8.97;;;3.60;99.90;;;;;;5074597;28;20699;-72
2021/11/23 01:55:41;;;;;;;16.87;8.97;;;3.60;99.90;;;;;;5070373;28;20198;-72
2021/11/23 01:58:11;;;;;;;16.70;9.57;;;3.60;99.90;;;;;;5071122;28;20206;-72
2021/11/23 02:00:38;;;;;;;17.43;9.23;;;3.60;99.90;;;;;;5072276;28;20202;-72
2021/11/23 02:03:05;;;;;;;15.57;9.50;;;3.70;99.90;;;;;;5071392;28;20569;-72
2021/11/23 02:05:32;;;;;;;15.60;9.70;;;3.70;99.90;;;;;;5078871;28;20206;-73
2021/11/23 02:07:59;;;;;;;17.23;10.37;;;3.60;99.90;;;;;;5075362;28;20205;-72
2021/11/23 02:10:26;;;;;;;20.47;10.93;;;3.70;99.90;;;;;;5068194;28;20209;-72
2021/11/23 02:12:55;;;;;;;18.77;11.20;;;3.70;99.90;;;;;;5070121;28;20293;-72
2021/11/23 02:15:22;;;;;;;18.40;10.70;;;3.70;99.90;;;;;;5069184;28;20657;-72
2021/11/23 02:17:49;;;;;;;18.83;10.03;;;3.80;99.90;;;;;;5072468;28;20194;-72
2021/11/23 02:20:19;;;;;;;22.87;11.40;;;3.80;99.90;;;;;;5074262;28;20640;-72
2021/11/23 02:22:47;;;;;;;20.33;11.13;;;3.80;99.90;;;;;;5077069;28;20202;-72
2021/11/23 02:25:15;;;;;;;20.40;10.97;;;3.80;99.90;;;;;;5070650;28;20206;-72
2021/11/23 02:27:42;;;;;;;16.13;9.73;;;3.90;99.90;;;;;;5071875;28;20690;-72
2021/11/23 02:30:11;;;;;;;19.87;11.27;;;3.90;99.90;;;;;;5073359;28;20202;-72
2021/11/23 02:32:40;;;;;;;17.73;10.47;;;3.90;99.90;;;;;;5075453;28;20209;-72
2021/11/23 02:35:07;;;;;;;17.83;10.10;;;3.90;99.90;;;;;;5073994;28;20219;-72
2021/11/23 02:37:42;;;;;;;18.90;10.23;;;3.90;99.90;;;;;;5078663;28;20200;-72
2021/11/23 02:40:10;;;;;;;17.47;10.90;;;3.90;99.90;;;;;;5069773;28;20666;-72
2021/11/23 02:42:37;;;;;;;20.73;11.83;;;3.90;99.90;;;;;;5074039;28;20557;-72
2021/11/23 02:45:04;;;;;;;20.23;11.37;;;4.00;99.90;;;;;;5073008;28;20536;-72
2021/11/23 02:47:34;;;;;;;19.63;11.80;;;4.00;99.90;;;;;;5075744;28;20202;-72
2021/11/23 02:50:00;;;;;;;17.57;10.10;;;4.00;99.90;;;;;;5073528;28;20199;-72
2021/11/23 02:52:28;;;;;;;17.53;10.93;;;4.10;99.90;;;;;;5075956;28;20213;-72
2021/11/23 02:54:59;;;;;;;18.97;10.67;;;4.10;99.90;;;;;;5073083;28;20221;-72
2021/11/23 02:57:27;;;;;;;21.63;11.70;;;4.10;99.90;;;;;;5073507;28;20206;-72
2021/11/23 02:59:54;;;;;;;19.33;10.83;;;4.10;99.90;;;;;;5073088;28;20207;-72
2021/11/23 03:02:21;;;;;;;19.87;11.73;;;4.10;99.90;;;;;;5070966;28;20217;-72
2021/11/23 03:04:52;;;;;;;20.17;11.20;;;4.20;99.90;;;;;;5077498;28;20571;-72
2021/11/23 03:07:19;;;;;;;18.17;10.77;;;4.20;99.90;;;;;;5077202;28;20657;-72
2021/11/23 03:09:46;;;;;;;17.87;10.37;;;4.20;99.90;;;;;;5078751;28;20648;-72
2021/11/23 03:12:19;;;;;;;17.10;10.07;;;4.20;99.90;;;;;;5072409;28;20205;-72
2021/11/23 03:14:46;;;;;;;20.00;10.90;;;4.30;99.90;;;;;;5073080;28;20218;-72
2021/11/23 03:17:14;;;;;;;18.23;10.53;;;4.30;99.90;;;;;;5074267;28;20218;-72
2021/11/23 03:19:41;;;;;;;19.50;11.00;;;4.30;99.90;;;;;;5074297;28;20217;-72
2021/11/23 03:22:09;;;;;;;19.30;12.27;;;4.30;99.90;;;;;;5072969;28;20681;-72
2021/11/23 03:24:37;;;;;;;19.83;10.90;;;4.30;99.90;;;;;;5074059;28;20205;-72
2021/11/23 03:27:05;;;;;;;19.57;11.27;;;4.30;99.90;;;;;;5073165;28;20206;-72
2021/11/23 03:29:33;;;;;;;21.93;12.07;;;4.40;99.90;;;;;;5073819;28;20385;-72
2021/11/23 03:32:00;;;;;;;20.30;11.97;;;4.40;99.90;;;;;;5073556;28;20206;-72
2021/11/23 03:34:31;;;;;;;18.70;11.40;;;4.40;99.90;;;;;;5072103;28;20214;-72
2021/11/23 03:36:58;;;;;;;19.43;11.07;;;4.40;99.90;;;;;;5073532;28;20210;-72
2021/11/23 03:39:25;;;;;;;20.07;11.63;;;4.40;99.90;;;;;;5073119;28;20206;-72
2021/11/23 03:41:51;;;;;;;22.47;10.80;;;4.40;99.90;;;;;;5073596;28;20214;-72
2021/11/23 03:44:18;;;;;;;21.27;12.17;;;4.40;99.90;;;;;;5073477;28;20213;-72
2021/11/23 03:46:46;;;;;;;18.77;11.73;;;4.50;99.90;;;;;;5073267;28;20212;-72
2021/11/23 03:49:13;;;;;;;21.03;12.10;;;4.50;99.90;;;;;;5072428;28;20205;-72
2021/11/23 03:51:40;;;;;;;22.50;11.60;;;4.60;99.90;;;;;;5072796;28;20198;-72
2021/11/23 03:54:07;;;;;;;18.93;10.70;;;4.60;99.90;;;;;;5073140;28;20216;-72
2021/11/23 03:56:34;;;;;;;21.53;11.20;;;4.60;99.90;;;;;;5073204;28;20296;-72
2021/11/23 03:59:01;;;;;;;21.93;11.60;;;4.60;99.90;;;;;;5072780;28;20479;-72
2021/11/23 04:01:28;;;;;;;22.73;10.50;;;4.60;99.90;;;;;;5072621;28;20292;-72
2021/11/23 04:03:56;;;;;;;20.83;12.03;;;4.60;99.90;;;;;;5071663;28;20248;-72
2021/11/23 04:06:23;;;;;;;20.00;10.83;;;4.70;99.90;;;;;;5072548;28;20202;-72
2021/11/23 04:08:50;;;;;;;19.73;10.63;;;4.70;99.90;;;;;;5072998;28;20546;-72
2021/11/23 04:11:16;;;;;;;21.70;11.83;;;4.70;99.90;;;;;;5077705;28;20201;-72
2021/11/23 04:13:44;;;;;;;18.93;10.10;;;4.60;99.90;;;;;;5080703;28;20220;-72
2021/11/23 04:16:11;;;;;;;19.13;10.77;;;4.70;99.90;;;;;;5072466;28;20209;-72
2021/11/23 04:18:38;;;;;;;20.27;11.50;;;4.70;99.90;;;;;;5072689;28;20212;-72
2021/11/23 04:21:06;;;;;;;21.10;12.10;;;4.70;99.90;;;;;;5073082;28;20210;-72
2021/11/23 04:23:33;;;;;;;19.93;11.33;;;4.70;99.90;;;;;;5072454;28;20214;-72
2021/11/23 04:26:01;;;;;;;18.30;10.63;;;4.70;99.90;;;;;;5071916;28;20206;-72
2021/11/23 04:28:28;;;;;;;24.50;12.17;;;4.80;99.90;;;;;;5071755;28;20267;-72
2021/11/23 04:30:56;;;;;;;17.23;11.20;;;4.80;99.90;;;;;;5071888;28;20660;-72
2021/11/23 04:33:23;;;;;;;20.90;11.30;;;4.80;99.90;;;;;;5073007;28;20199;-78
2021/11/23 04:35:50;;;;;;;20.07;11.07;;;4.90;99.90;;;;;;5072324;28;20198;-72
2021/11/23 04:38:18;;;;;;;15.67;10.30;;;4.90;99.90;;;;;;5072774;28;20206;-74
2021/11/23 04:40:45;;;;;;;20.43;11.63;;;4.90;99.90;;;;;;5072584;28;20637;-73
2021/11/23 04:43:12;;;;;;;20.17;11.73;;;4.90;99.90;;;;;;5071531;28;20198;-72
2021/11/23 04:45:39;;;;;;;19.20;10.70;;;4.90;99.90;;;;;;5072010;28;20208;-72
2021/11/23 04:48:09;;;;;;;18.30;11.23;;;4.90;99.90;;;;;;5072190;28;20205;-72
2021/11/23 04:50:36;;;;;;;16.77;10.90;;;4.90;99.90;;;;;;5071749;28;20206;-72
2021/11/23 04:53:03;;;;;;;18.13;10.73;;;4.80;99.90;;;;;;5072577;28;20198;-72
2021/11/23 04:55:32;;;;;;;21.57;12.20;;;4.80;99.90;;;;;;5072103;28;20226;-72
2021/11/23 04:57:59;;;;;;;19.10;11.10;;;4.80;99.90;;;;;;5071693;28;20212;-72
2021/11/23 05:00:25;;;;;;;21.87;11.37;;;4.80;99.90;;;;;;5071343;28;20208;-71
2021/11/23 05:02:52;;;;;;;16.87;10.73;;;4.80;99.90;;;;;;5072187;28;20214;-72
2021/11/23 05:05:19;;;;;;;21.60;12.03;;;4.80;99.90;;;;;;5071740;28;20205;-72
2021/11/23 05:07:46;;;;;;;21.63;12.47;;;4.80;99.90;;;;;;5072425;28;20202;-71
2021/11/23 05:10:15;;;;;;;20.80;11.93;;;4.80;99.90;;;;;;5071888;28;20202;-71
2021/11/23 05:12:43;;;;;;;23.03;13.97;;;4.80;99.90;;;;;;5071983;28;20202;-71
2021/11/23 05:15:10;;;;;;;22.20;12.27;;;4.80;99.90;;;;;;5071109;28;20699;-72
2021/11/23 05:17:39;;;;;;;25.33;13.57;;;4.80;99.90;;;;;;5072432;28;20198;-71
2021/11/23 05:20:08;;;;;;;20.80;12.60;;;4.80;99.90;;;;;;5071299;28;20206;-71
2021/11/23 05:22:35;;;;;;;21.40;13.03;;;4.80;99.90;;;;;;5071590;28;20652;-71
2021/11/23 05:25:02;;;;;;;21.60;13.07;;;4.80;99.90;;;;;;5071863;28;20207;-71
2021/11/23 05:27:29;;;;;;;23.67;13.13;;;4.80;99.90;;;;;;5070814;28;20202;-71
2021/11/23 05:29:59;;;;;;;20.83;13.30;;;4.80;99.90;;;;;;5072116;28;20215;-71
2021/11/23 05:32:26;;;;;;;21.40;12.70;;;4.80;99.90;;;;;;5071261;28;20340;-71
2021/11/23 05:34:52;;;;;;;23.00;12.57;;;4.80;99.90;;;;;;5071547;28;20348;-71
2021/11/23 05:37:20;;;;;;;19.33;11.80;;;4.80;99.90;;;;;;5070965;28;20549;-72
2021/11/23 05:39:47;;;;;;;20.47;11.70;;;4.80;99.90;;;;;;5071336;28;20213;-71
2021/11/23 05:42:14;;;;;;;21.07;12.93;;;4.80;99.90;;;;;;5071699;28;20206;-71
2021/11/23 05:44:41;;;;;;;22.67;13.93;;;4.80;99.90;;;;;;5071887;28;20285;-71
2021/11/23 05:47:09;;;;;;;21.93;13.70;;;4.80;99.90;;;;;;5071454;28;20637;-71
2021/11/23 05:49:36;;;;;;;21.20;13.20;;;4.70;99.90;;;;;;5071769;28;20198;-72
2021/11/23 05:52:03;;;;;;;24.00;13.80;;;4.70;99.90;;;;;;5070710;28;20206;-72
2021/11/23 05:54:30;;;;;;;22.20;12.80;;;4.70;99.90;;;;;;5070995;28;20222;-71
2021/11/23 05:56:57;;;;;;;21.40;12.77;;;4.70;99.90;;;;;;5072168;28;20206;-71
2021/11/23 05:59:24;;;;;;;21.77;13.20;;;4.70;99.90;;;;;;5071002;28;20560;-71
2021/11/23 06:01:51;;;;;;;21.17;13.27;;;4.80;99.90;;;;;;5071572;28;20215;-71
2021/11/23 06:04:19;;;;;;;24.27;14.00;;;4.80;99.90;;;;;;5073867;28;20202;-71
2021/11/23 06:06:46;;;;;;;20.20;12.67;;;4.80;99.90;;;;;;5075369;28;20202;-71
2021/11/23 06:09:13;;;;;;;22.37;13.03;;;4.90;99.90;;;;;;5075486;28;20555;-71
2021/11/23 06:11:40;;;;;;;24.57;13.50;;;4.80;99.90;;;;;;5075236;28;20277;-71
2021/11/23 06:14:07;;;;;;;19.23;11.70;;;4.90;99.90;;;;;;5074909;28;20199;-71
2021/11/23 06:16:36;;;;;;;19.90;12.30;;;4.90;99.90;;;;;;5075030;28;20288;-71
2021/11/23 06:19:03;;;;;;;20.43;11.73;;;4.90;99.90;;;;;;5075022;28;20210;-71
2021/11/23 06:21:31;;;;;;;21.17;12.27;;;5.00;99.90;;;;;;5073365;28;20202;-72
2021/11/23 06:23:58;;;;;;;19.03;12.00;;;4.90;99.90;;;;;;5075098;28;20622;-72
2021/11/23 06:26:25;;;;;;;20.63;12.43;;;5.00;99.90;;;;;;5075432;28;20675;-71
2021/11/23 06:28:52;;;;;;;18.83;12.80;;;5.00;99.90;;;;;;5074006;28;20202;-71
2021/11/23 06:31:18;;;;;;;20.97;13.70;;;5.00;99.90;;;;;;5074629;28;20573;-71
2021/11/23 06:33:46;;;;;;;18.70;12.23;;;5.00;99.90;;;;;;5075172;28;20210;-72
2021/11/23 06:36:13;;;;;;;20.63;12.97;;;5.00;99.90;;;;;;5074016;28;20678;-71
2021/11/23 06:38:41;;;;;;;19.33;12.60;;;5.00;99.90;;;;;;5074721;28;20213;-71
2021/11/23 06:41:08;;;;;;;19.13;12.30;;;5.00;99.90;;;;;;5074787;28;20276;-71
2021/11/23 06:43:35;;;;;;;20.07;12.87;;;5.00;99.90;;;;;;5073535;28;20561;-71
2021/11/23 06:46:02;;;;;;;19.23;12.77;;;5.10;99.90;;;;;;5074359;28;20213;-71
2021/11/23 06:48:28;;;;;;;20.87;12.70;;;5.00;99.90;;;;;;5074827;28;20540;-71
2021/11/23 06:50:55;;;;;;;20.67;12.50;;;5.10;99.90;;;;;;5074221;28;20214;-71
2021/11/23 06:53:22;;;;;;;19.80;13.00;;;5.10;99.90;;;;;;5073720;28;20212;-71
2021/11/23 06:55:50;;;;;;;19.03;12.57;;;5.10;99.90;;;;;;5074495;28;20222;-72
2021/11/23 06:58:18;;;;;;;19.73;12.67;;;5.10;99.90;;;;;;5073920;28;20210;-72
2021/11/23 07:00:45;;;;;;;19.17;12.17;;;5.10;99.90;;;;;;5074099;28;20352;-72
2021/11/23 07:03:12;;;;;;;17.80;12.23;;;5.10;99.90;;;;;;5074302;28;20221;-72
2021/11/23 07:05:39;;;;;;;24.43;13.50;;;5.10;99.90;;;;;;5073698;28;20289;-72
2021/11/23 07:08:05;;;;;;;17.60;11.27;;;5.10;99.90;;;;;;5074628;28;20202;-72
2021/11/23 07:10:32;;;;;;;18.83;11.97;;;5.10;99.90;;;;;;5073532;28;20576;-71
2021/11/23 07:13:02;;;;;;;18.33;11.93;;;5.10;99.90;;;;;;5073456;28;20203;-71
2021/11/23 07:15:29;;;;;;;17.97;12.30;;;5.20;99.90;;;;;;5073642;28;20222;-72
2021/11/23 07:17:56;;;;;;;17.53;11.60;;;5.20;99.90;;;;;;5074299;28;20210;-72
2021/11/23 07:20:23;;;;;;;19.53;12.37;;;5.20;99.90;;;;;;5073763;28;20209;-72
2021/11/23 07:22:50;;;;;;;18.60;11.63;;;5.20;99.90;;;;;;5073273;28;20299;-72
2021/11/23 07:25:16;;;;;;;18.13;11.43;;;5.20;99.90;;;;;;5073799;28;20210;-72
2021/11/23 07:27:43;;;;;;;18.50;11.37;;;5.20;99.90;;;;;;5073330;28;20585;-72
2021/11/23 07:30:13;;;;;;;18.13;11.40;;;5.20;99.90;;;;;;5073940;28;20198;-72
2021/11/23 07:32:40;;;;;;;19.23;12.30;;;5.20;99.90;;;;;;5073550;28;20198;-72
2021/11/23 07:35:08;;;;;;;18.93;11.90;;;5.30;99.90;;;;;;5073201;28;20588;-71
2021/11/23 07:37:40;;;;;;;19.83;11.90;;;5.30;99.90;;;;;;5073833;28;20578;-72
2021/11/23 07:40:09;;;;;;;17.23;10.63;;;5.30;99.90;;;;;;5073379;28;20226;-72
2021/11/23 07:42:35;;;;;;;18.03;11.67;;;5.30;99.90;;;;;;5072789;28;20237;-72
2021/11/23 07:45:03;;;;;;;20.90;12.73;;;5.30;99.90;;;;;;5072644;28;20202;-71
2021/11/23 07:47:31;;;;;;;17.87;10.87;;;5.30;99.90;;;;;;5073341;28;20202;-72
2021/11/23 07:49:58;;;;;;;17.63;11.60;;;5.30;99.90;;;;;;5073552;28;20212;-72
2021/11/23 07:52:25;;;;;;;18.37;11.70;;;5.30;99.90;;;;;;5073156;28;20206;-71
2021/11/23 07:54:51;;;;;;;19.13;11.60;;;5.40;99.90;;;;;;5073005;28;20590;-72
2021/11/23 07:57:19;;;;;;;18.37;12.07;;;5.30;99.90;;;;;;5073429;28;20204;-71
2021/11/23 07:59:46;;;;;;;20.70;11.80;;;5.40;99.90;;;;;;5071716;28;20287;-72
2021/11/23 08:02:13;;;;;;;20.33;12.27;;;5.50;99.90;;;;;;5072852;28;20213;-71
2021/11/23 08:04:41;;;;;;;19.73;12.43;;;5.50;99.90;;;;;;5072519;28;20621;-72
2021/11/23 08:07:08;;;;;;;19.60;12.00;;;5.50;99.90;;;;;;5073069;28;20202;-72
2021/11/23 08:09:35;;;;;;;20.23;12.20;;;5.50;99.90;;;;;;5075971;28;20208;-71
2021/11/23 08:12:03;;;;;;;20.40;12.67;;;5.60;99.90;;;;;;5073284;28;20205;-71
2021/11/23 08:14:30;;;;;;;20.53;12.97;;;5.60;99.90;;;;;;5072802;28;20245;-71
2021/11/23 08:16:57;;;;;;;21.80;13.57;;;5.60;99.90;;;;;;5073100;28;20226;-71
2021/11/23 08:19:24;;;;;;;20.07;12.23;;;5.60;99.90;;;;;;5073042;28;20210;-71
2021/11/23 08:21:52;;;;;;;19.47;11.53;;;5.60;99.90;;;;;;5071969;28;20206;-72
2021/11/23 08:24:19;;;;;;;20.00;12.50;;;5.70;99.90;;;;;;5078243;28;20195;-71
2021/11/23 08:26:46;;;;;;;20.83;12.10;;;5.60;99.90;;;;;;5071694;28;20732;-71
2021/11/23 08:29:13;;;;;;;20.50;12.77;;;5.60;99.90;;;;;;5073010;28;20225;-71
2021/11/23 08:31:40;;;;;;;19.13;11.93;;;5.70;99.90;;;;;;5071857;28;20209;-72
2021/11/23 08:34:07;;;;;;;20.93;12.50;;;5.70;99.90;;;;;;5072426;28;20206;-72
2021/11/23 08:36:34;;;;;;;22.47;13.20;;;5.70;99.90;;;;;;5072390;28;20228;-72
2021/11/23 08:39:05;;;;;;;20.40;12.50;;;5.70;99.90;;;;;;5071932;28;20614;-72
2021/11/23 08:41:32;;;;;;;21.47;12.57;;;5.80;99.90;;;;;;5072268;28;20206;-72
2021/11/23 08:43:59;;;;;;;20.33;11.97;;;5.80;99.90;;;;;;5071801;28;20208;-71
2021/11/23 08:46:26;;;;;;;21.93;13.43;;;5.80;99.90;;;;;;5072493;28;20635;-71
2021/11/23 08:48:53;;;;;;;21.27;12.23;;;5.80;99.90;;;;;;5072642;28;20573;-71
2021/11/23 08:51:23;;;;;;;21.60;12.20;;;5.80;99.90;;;;;;5071264;28;20212;-71
2021/11/23 08:53:51;;;;;;;20.97;12.60;;;5.80;99.90;;;;;;5071843;28;20206;-71
2021/11/23 08:56:19;;;;;;;20.90;12.10;;;5.90;99.90;;;;;;5072634;28;20647;-71
2021/11/23 08:58:50;;;;;;;20.37;12.33;;;5.90;99.90;;;;;;5071603;28;20210;-72
2021/11/23 09:01:20;;;;;;;21.27;13.13;;;5.90;99.90;;;;;;5072126;28;20622;-72
2021/11/23 09:03:47;;;;;;;25.97;13.33;;;6.00;99.90;;;;;;5071955;28;20218;-72
2021/11/23 09:06:14;;;;;;;19.53;10.93;;;6.00;99.90;;;;;;5071418;28;20206;-71
2021/11/23 09:08:53;;;;;;;20.97;12.80;;;6.10;99.90;;;;;;5071363;28;20281;-71
2021/11/23 09:11:23;;;;;;;22.23;12.43;;;6.10;99.90;;;;;;5071920;28;20206;-72
2021/11/23 09:13:50;;;;;;;21.93;12.63;;;6.10;99.90;;;;;;5070739;28;20492;-72
2021/11/23 09:16:17;;;;;;;22.13;12.90;;;6.10;99.90;;;;;;5071075;28;20316;-72
2021/11/23 09:18:44;;;;;;;22.93;12.23;;;6.10;99.90;;;;;;5072114;28;20214;-71
2021/11/23 09:21:11;;;;;;;21.40;12.17;;;6.20;99.90;;;;;;5071615;28;20212;-72
2021/11/23 09:23:38;;;;;;;20.20;11.27;;;6.20;99.90;;;;;;5072153;28;20206;-72
2021/11/23 09:26:05;;;;;;;21.50;11.97;;;6.30;99.90;;;;;;5072339;28;20217;-73
2021/11/23 09:28:33;;;;;;;21.90;12.10;;;6.30;99.90;;;;;;5071192;28;20209;-72
2021/11/23 09:31:00;;;;;;;20.10;11.00;;;6.30;99.90;;;;;;5071622;28;20214;-72
2021/11/23 09:33:27;;;;;;;31.10;11.47;;;6.40;99.90;;;;;;5071581;28;20209;-72
2021/11/23 09:35:54;;;;;;;19.67;11.40;;;6.30;99.90;;;;;;5070789;28;20232;-72
2021/11/23 09:38:21;;;;;;;22.17;11.20;;;6.30;99.90;;;;;;5074849;28;20221;-72
2021/11/23 09:40:48;;;;;;;21.40;11.90;;;6.30;99.90;;;;;;5075743;28;20682;-71
2021/11/23 09:43:15;;;;;;;24.50;12.93;;;6.30;99.90;;;;;;5076189;28;20206;-72
2021/11/23 09:45:44;;;;;;;21.80;11.87;;;6.30;99.90;;;;;;5075692;28;20298;-72
2021/11/23 09:48:11;;;;;;;22.97;12.37;;;6.30;99.90;;;;;;5075203;28;20202;-71
2021/11/23 09:50:39;;;;;;;21.97;11.63;;;6.30;99.90;;;;;;5075763;28;20225;-72
2021/11/23 09:53:07;;;;;;;23.70;12.23;;;6.40;99.90;;;;;;5068117;28;20581;-71
2021/11/23 09:55:33;;;;;;;23.93;11.97;;;6.40;99.90;;;;;;5073180;28;20222;-72
2021/11/23 09:58:00;;;;;;;21.53;11.60;;;6.40;99.90;;;;;;5071686;28;20206;-72
2021/11/23 10:00:31;;;;;;;23.47;11.80;;;6.40;99.90;;;;;;5067963;28;20206;-72
2021/11/23 10:03:11;;;;;;;22.73;12.60;;;6.40;99.90;;;;;;5067478;28;20571;-72
2021/11/23 10:05:40;;;;;;;23.60;11.50;;;6.50;99.90;;;;;;5068120;28;20198;-72
2021/11/23 10:08:15;;;;;;;22.03;11.27;;;6.60;99.90;;;;;;5058684;28;20569;-72
2021/11/23 10:10:49;;;;;;;21.37;10.83;;;6.70;99.90;;;;;;5062290;28;20285;-72
2021/11/23 10:13:17;;;;;;;21.47;11.33;;;6.60;99.90;;;;;;5069960;28;20887;-71
2021/11/23 10:15:48;;;;;;;21.80;11.30;;;6.70;99.90;;;;;;5069629;28;20309;-72
2021/11/23 10:18:19;;;;;;;20.17;10.57;;;6.80;99.90;;;;;;5070705;28;20204;-72
2021/11/23 10:20:48;;;;;;;22.60;11.23;;;6.80;99.90;;;;;;5066320;28;20553;-71
2021/11/23 10:23:19;;;;;;;22.87;11.33;;;6.80;99.90;;;;;;5079699;28;20595;-72
2021/11/23 10:25:49;;;;;;;21.47;11.40;;;6.80;99.90;;;;;;5077081;28;20599;-72
2021/11/23 10:28:17;;;;;;;19.27;9.67;;;6.80;99.90;;;;;;5070036;28;20751;-72
2021/11/23 10:30:46;;;;;;;18.93;9.83;;;6.80;99.90;;;;;;5071229;28;20211;-72
2021/11/23 10:33:14;;;;;;;20.07;10.37;;;6.70;99.90;;;;;;5070092;28;20256;-72
2021/11/23 10:35:43;;;;;;;20.63;11.20;;;6.90;99.90;;;;;;5077809;28;20228;-72
2021/11/23 10:38:13;;;;;;;23.37;11.17;;;6.90;99.90;;;;;;5063622;28;20210;-72
2021/11/23 10:40:42;;;;;;;19.20;10.37;;;6.90;99.90;;;;;;5063504;28;20323;-72
2021/11/23 10:43:11;;;;;;;19.40;10.33;;;7.00;99.90;;;;;;5076622;28;20565;-72
2021/11/23 10:45:40;;;;;;;20.67;10.90;;;7.10;99.90;;;;;;5089733;28;20206;-72
2021/11/23 10:48:10;;;;;;;20.73;11.93;;;7.00;99.90;;;;;;5090339;28;20201;-72
2021/11/23 10:50:38;;;;;;;18.57;9.37;;;7.00;99.90;;;;;;5068872;28;20590;-72
2021/11/23 10:53:08;;;;;;;18.20;9.73;;;7.10;99.90;;;;;;5064635;28;20198;-72
2021/11/23 10:55:37;;;;;;;20.53;10.23;;;7.10;99.90;;;;;;5058138;28;20214;-72
2021/11/23 10:58:07;;;;;;;17.83;9.83;;;7.20;99.90;;;;;;5080045;28;20426;-72
2021/11/23 11:00:37;;;;;;;17.03;8.97;;;7.10;99.90;;;;;;5070306;28;20206;-72
2021/11/23 11:03:05;;;;;;;18.00;9.67;;;7.10;99.90;;;;;;5068152;28;20296;-72
2021/11/23 11:05:33;;;;;;;14.97;8.63;;;7.10;99.90;;;;;;5069474;28;20213;-71
2021/11/23 11:08:01;;;;;;;17.57;8.77;;;7.20;99.90;;;;;;5064700;28;20198;-72
2021/11/23 11:10:31;;;;;;;15.53;8.20;;;7.20;99.90;;;;;;5066829;28;20242;-72
2021/11/23 11:12:59;;;;;;;13.73;7.83;;;7.20;99.90;;;;;;5069814;28;20241;-72
2021/11/23 11:15:31;;;;;;;15.37;8.57;;;7.20;99.90;;;;;;5069765;28;20724;-72
2021/11/23 11:17:58;;;;;;;17.97;9.63;;;7.30;99.90;;;;;;5069580;28;20206;-72
2021/11/23 11:20:38;;;;;;;16.70;9.47;;;7.30;99.90;;;;;;5067513;28;20211;-72
2021/11/23 11:23:08;;;;;;;14.93;8.47;;;7.20;99.90;;;;;;5069227;28;20213;-72
2021/11/23 11:25:59;;;;;;;18.23;8.50;;;7.20;99.90;;;;;;5057956;28;20209;-72
2021/11/23 11:28:42;;;;;;;16.20;8.27;;;7.20;99.90;;;;;;5048531;28;20210;-72
2021/11/23 11:31:26;;;;;;;15.67;8.03;;;7.20;99.90;;;;;;5065958;28;20234;-72
2021/11/23 11:34:16;;;;;;;14.23;7.33;;;7.20;99.90;;;;;;5048896;28;20207;-72
2021/11/23 11:36:46;;;;;;;11.70;7.03;;;7.10;99.90;;;;;;5049601;28;20318;-72
2021/11/23 11:39:48;;;;;;;12.20;6.97;;;7.30;99.90;;;;;;5055646;28;20657;-72
2021/11/23 11:43:03;;;;;;;12.10;7.27;;;7.30;99.90;;;;;;5048687;28;20249;-72
2021/11/23 11:45:49;;;;;;;12.43;7.27;;;7.30;99.90;;;;;;5065068;28;20207;-71
2021/11/23 11:48:43;;;;;;;11.83;6.67;;;7.40;99.90;;;;;;5068980;28;20202;-73
2021/11/23 11:51:12;;;;;;;13.10;7.83;;;7.40;99.90;;;;;;5048834;28;20237;-72
2021/11/23 11:53:41;;;;;;;12.83;7.23;;;7.50;99.90;;;;;;5053542;28;20202;-72
2021/11/23 11:56:09;;;;;;;12.60;6.83;;;7.40;99.90;;;;;;5067833;28;20218;-72
2021/11/23 11:58:51;;;;;;;12.23;7.17;;;7.40;99.90;;;;;;5068752;28;20209;-72
2021/11/23 12:01:33;;;;;;;13.13;7.30;;;7.40;99.90;;;;;;5067894;28;20206;-72
2021/11/23 12:04:10;;;;;;;15.70;8.57;;;7.40;99.90;;;;;;5066817;28;20242;-72
2021/11/23 12:07:18;;;;;;;12.60;7.60;;;7.30;99.90;;;;;;5067452;28;20206;-72
2021/11/23 12:09:48;;;;;;;14.70;8.07;;;7.30;99.90;;;;;;5044334;28;20211;-72
2021/11/23 12:12:33;;;;;;;13.00;8.10;;;7.30;99.90;;;;;;5065505;28;20206;-72
2021/11/23 12:15:09;;;;;;;14.63;8.10;;;7.30;99.90;;;;;;5067114;28;20245;-72
2021/11/23 12:17:51;;;;;;;15.27;8.60;;;7.30;99.90;;;;;;5069141;28;20222;-72
2021/11/23 12:20:32;;;;;;;15.37;8.10;;;7.30;99.90;;;;;;5061964;28;20297;-72
2021/11/23 12:23:18;;;;;;;14.00;8.13;;;7.30;99.90;;;;;;5063416;28;20240;-72
2021/11/23 12:25:54;;;;;;;14.93;8.20;;;7.30;99.90;;;;;;5061414;28;20223;-72
2021/11/23 12:28:21;;;;;;;14.03;7.93;;;7.30;99.90;;;;;;5067851;28;20679;-72
2021/11/23 12:30:48;;;;;;;15.37;8.00;;;7.30;99.90;;;;;;5063441;28;20632;-72
2021/11/23 12:33:17;;;;;;;14.27;7.87;;;7.30;99.90;;;;;;5065934;28;20656;-72
2021/11/23 12:35:44;;;;;;;16.30;9.27;;;7.20;99.90;;;;;;5064257;28;20206;-72
2021/11/23 12:38:23;;;;;;;14.13;8.10;;;7.20;99.90;;;;;;5055635;28;20597;-72
2021/11/23 12:40:50;;;;;;;11.83;7.40;;;7.30;99.90;;;;;;5067965;28;20213;-72
2021/11/23 12:43:18;;;;;;;14.57;8.67;;;7.30;99.90;;;;;;5067038;28;20214;-72
2021/11/23 12:45:46;;;;;;;12.97;7.30;;;7.30;99.90;;;;;;5067515;28;20207;-72
2021/11/23 12:48:28;;;;;;;15.17;8.00;;;7.40;99.90;;;;;;5065522;28;20202;-72